sensor_id;sensor_type;location;lat;lon;timestamp;P1;durP1;ratioP1;P2;durP2;ratioP2
3841;SDS011;1936;47.074;15.336;2023-03-11T00:01:01;0.93;;;0.70;;
3841;SDS011;1936;47.074;15.336;2023-03-11T00:03:06;0.95;;;0.70;;
3841;SDS011;1936;47.074;15.336;2023-03-11T00:05:11;1.05;;;0.65;;
3841;SDS011;1936;47.074;15.336;2023-03-11T00:07:19;1.45;;;0.75;;
3841;SDS011;1936;47.074;15.336;2023-03-11T00:09:23;2.85;;;0.70;;
3841;SDS011;1936;47.074;15.336;2023-03-11T00:11:27;2.33;;;0.55;;
3841;SDS011;1936;47.074;15.336;2023-03-11T00:13:31;0.80;;;0.60;;
3841;SDS011;1936;47.074;15.336;2023-03-11T00:15:34;1.15;;;0.70;;
3841;SDS011;1936;47.074;15.336;2023-03-11T00:17:39;1.45;;;0.85;;
3841;SDS011;1936;47.074;15.336;2023-03-11T00:19:43;2.55;;;0.60;;
3841;SDS011;1936;47.074;15.336;2023-03-11T00:21:48;0.90;;;0.70;;
3841;SDS011;1936;47.074;15.336;2023-03-11T00:23:53;1.13;;;0.88;;
3841;SDS011;1936;47.074;15.336;2023-03-11T00:25:58;1.00;;;0.80;;
3841;SDS011;1936;47.074;15.336;2023-03-11T00:28:04;2.53;;;0.80;;
3841;SDS011;1936;47.074;15.336;2023-03-11T00:30:11;2.97;;;0.90;;
3841;SDS011;1936;47.074;15.336;2023-03-11T00:32:17;2.10;;;1.00;;
3841;SDS011;1936;47.074;15.336;2023-03-11T00:34:21;1.10;;;0.80;;
3841;SDS011;1936;47.074;15.336;2023-03-11T00:36:26;0.80;;;0.80;;
3841;SDS011;1936;47.074;15.336;2023-03-11T00:38:34;1.92;;;1.55;;
3841;SDS011;1936;47.074;15.336;2023-03-11T00:40:39;6.68;;;0.90;;
3841;SDS011;1936;47.074;15.336;2023-03-11T00:42:44;1.77;;;1.63;;
3841;SDS011;1936;47.074;15.336;2023-03-11T00:44:47;0.88;;;0.70;;
3841;SDS011;1936;47.074;15.336;2023-03-11T00:46:51;1.63;;;1.00;;
3841;SDS011;1936;47.074;15.336;2023-03-11T00:48:56;1.40;;;1.05;;
3841;SDS011;1936;47.074;15.336;2023-03-11T00:51:00;1.20;;;1.10;;
3841;SDS011;1936;47.074;15.336;2023-03-11T00:53:04;1.77;;;1.55;;
3841;SDS011;1936;47.074;15.336;2023-03-11T00:55:09;1.45;;;1.35;;
3841;SDS011;1936;47.074;15.336;2023-03-11T00:57:16;1.25;;;1.00;;
3841;SDS011;1936;47.074;15.336;2023-03-11T00:59:20;2.53;;;1.25;;
3841;SDS011;1936;47.074;15.336;2023-03-11T01:01:24;2.13;;;1.65;;
3841;SDS011;1936;47.074;15.336;2023-03-11T01:03:28;3.17;;;1.60;;
3841;SDS011;1936;47.074;15.336;2023-03-11T01:05:33;1.92;;;1.52;;
3841;SDS011;1936;47.074;15.336;2023-03-11T01:07:37;2.47;;;1.83;;
3841;SDS011;1936;47.074;15.336;2023-03-11T01:09:41;1.55;;;1.20;;
3841;SDS011;1936;47.074;15.336;2023-03-11T01:11:45;1.70;;;1.02;;
3841;SDS011;1936;47.074;15.336;2023-03-11T01:13:51;1.23;;;0.93;;
3841;SDS011;1936;47.074;15.336;2023-03-11T01:15:56;1.23;;;1.13;;
3841;SDS011;1936;47.074;15.336;2023-03-11T01:18:00;1.50;;;1.10;;
3841;SDS011;1936;47.074;15.336;2023-03-11T01:20:08;1.23;;;0.95;;
3841;SDS011;1936;47.074;15.336;2023-03-11T01:22:13;1.30;;;0.90;;
3841;SDS011;1936;47.074;15.336;2023-03-11T01:24:17;1.30;;;1.20;;
3841;SDS011;1936;47.074;15.336;2023-03-11T01:26:21;1.70;;;1.20;;
3841;SDS011;1936;47.074;15.336;2023-03-11T01:28:25;1.05;;;0.90;;
3841;SDS011;1936;47.074;15.336;2023-03-11T01:30:30;1.30;;;1.00;;
3841;SDS011;1936;47.074;15.336;2023-03-11T01:32:34;1.13;;;0.90;;
3841;SDS011;1936;47.074;15.336;2023-03-11T01:34:37;0.95;;;0.85;;
3841;SDS011;1936;47.074;15.336;2023-03-11T01:36:41;1.90;;;1.13;;
3841;SDS011;1936;47.074;15.336;2023-03-11T01:38:45;1.65;;;1.20;;
3841;SDS011;1936;47.074;15.336;2023-03-11T01:40:49;1.45;;;1.08;;
3841;SDS011;1936;47.074;15.336;2023-03-11T01:42:54;1.00;;;0.90;;
3841;SDS011;1936;47.074;15.336;2023-03-11T01:44:58;4.28;;;1.15;;
3841;SDS011;1936;47.074;15.336;2023-03-11T01:49:49;2.33;;;0.90;;
3841;SDS011;1936;47.074;15.336;2023-03-11T01:51:54;2.13;;;0.70;;
3841;SDS011;1936;47.074;15.336;2023-03-11T01:54:00;1.30;;;0.88;;
3841;SDS011;1936;47.074;15.336;2023-03-11T01:56:07;1.55;;;1.05;;
3841;SDS011;1936;47.074;15.336;2023-03-11T01:58:13;2.70;;;0.73;;
3841;SDS011;1936;47.074;15.336;2023-03-11T02:00:19;1.20;;;1.10;;
3841;SDS011;1936;47.074;15.336;2023-03-11T02:02:24;0.90;;;0.80;;
3841;SDS011;1936;47.074;15.336;2023-03-11T02:04:34;1.95;;;1.00;;
3841;SDS011;1936;47.074;15.336;2023-03-11T02:06:40;1.50;;;1.02;;
3841;SDS011;1936;47.074;15.336;2023-03-11T02:08:44;2.95;;;1.10;;
3841;SDS011;1936;47.074;15.336;2023-03-11T02:10:48;1.60;;;1.05;;
3841;SDS011;1936;47.074;15.336;2023-03-11T02:12:55;1.75;;;0.95;;
3841;SDS011;1936;47.074;15.336;2023-03-11T02:14:59;1.85;;;1.13;;
3841;SDS011;1936;47.074;15.336;2023-03-11T02:17:03;2.88;;;1.10;;
3841;SDS011;1936;47.074;15.336;2023-03-11T02:19:09;0.70;;;0.60;;
3841;SDS011;1936;47.074;15.336;2023-03-11T02:21:25;1.05;;;0.80;;
3841;SDS011;1936;47.074;15.336;2023-03-11T02:23:33;1.08;;;0.80;;
3841;SDS011;1936;47.074;15.336;2023-03-11T02:25:42;1.00;;;0.60;;
3841;SDS011;1936;47.074;15.336;2023-03-11T02:27:54;1.33;;;0.98;;
3841;SDS011;1936;47.074;15.336;2023-03-11T02:29:59;1.38;;;0.80;;
3841;SDS011;1936;47.074;15.336;2023-03-11T02:32:05;0.90;;;0.77;;
3841;SDS011;1936;47.074;15.336;2023-03-11T02:34:10;4.95;;;0.70;;
3841;SDS011;1936;47.074;15.336;2023-03-11T02:36:32;2.33;;;1.00;;
3841;SDS011;1936;47.074;15.336;2023-03-11T02:38:37;1.08;;;0.98;;
3841;SDS011;1936;47.074;15.336;2023-03-11T02:40:43;1.50;;;0.88;;
3841;SDS011;1936;47.074;15.336;2023-03-11T02:42:54;2.35;;;0.82;;
3841;SDS011;1936;47.074;15.336;2023-03-11T02:45:00;1.50;;;1.08;;
3841;SDS011;1936;47.074;15.336;2023-03-11T02:47:07;0.70;;;0.50;;
3841;SDS011;1936;47.074;15.336;2023-03-11T02:49:11;1.05;;;0.50;;
3841;SDS011;1936;47.074;15.336;2023-03-11T02:51:15;1.40;;;0.77;;
3841;SDS011;1936;47.074;15.336;2023-03-11T02:53:19;3.45;;;0.60;;
3841;SDS011;1936;47.074;15.336;2023-03-11T02:55:23;0.98;;;0.45;;
3841;SDS011;1936;47.074;15.336;2023-03-11T02:57:27;0.80;;;0.68;;
3841;SDS011;1936;47.074;15.336;2023-03-11T02:59:32;1.77;;;0.60;;
3841;SDS011;1936;47.074;15.336;2023-03-11T03:01:36;0.60;;;0.50;;
3841;SDS011;1936;47.074;15.336;2023-03-11T03:03:40;2.05;;;1.08;;
3841;SDS011;1936;47.074;15.336;2023-03-11T03:05:44;1.13;;;0.50;;
3841;SDS011;1936;47.074;15.336;2023-03-11T03:07:48;2.35;;;0.70;;
3841;SDS011;1936;47.074;15.336;2023-03-11T03:09:52;0.50;;;0.40;;
3841;SDS011;1936;47.074;15.336;2023-03-11T03:11:55;1.80;;;0.57;;
3841;SDS011;1936;47.074;15.336;2023-03-11T03:13:59;0.70;;;0.60;;
3841;SDS011;1936;47.074;15.336;2023-03-11T03:16:04;0.73;;;0.40;;
3841;SDS011;1936;47.074;15.336;2023-03-11T03:18:08;0.60;;;0.40;;
3841;SDS011;1936;47.074;15.336;2023-03-11T03:20:12;0.90;;;0.55;;
3841;SDS011;1936;47.074;15.336;2023-03-11T03:22:17;0.93;;;0.82;;
3841;SDS011;1936;47.074;15.336;2023-03-11T03:24:20;0.70;;;0.40;;
3841;SDS011;1936;47.074;15.336;2023-03-11T03:26:24;0.93;;;0.60;;
3841;SDS011;1936;47.074;15.336;2023-03-11T03:28:27;1.13;;;0.50;;
3841;SDS011;1936;47.074;15.336;2023-03-11T03:30:31;2.05;;;0.40;;
3841;SDS011;1936;47.074;15.336;2023-03-11T03:32:36;0.68;;;0.40;;
3841;SDS011;1936;47.074;15.336;2023-03-11T03:34:40;3.70;;;0.55;;
3841;SDS011;1936;47.074;15.336;2023-03-11T03:36:43;0.70;;;0.43;;
3841;SDS011;1936;47.074;15.336;2023-03-11T03:38:47;0.50;;;0.40;;
3841;SDS011;1936;47.074;15.336;2023-03-11T03:40:51;0.50;;;0.40;;
3841;SDS011;1936;47.074;15.336;2023-03-11T03:42:54;0.63;;;0.40;;
3841;SDS011;1936;47.074;15.336;2023-03-11T03:44:58;2.33;;;0.60;;
3841;SDS011;1936;47.074;15.336;2023-03-11T03:47:02;0.90;;;0.50;;
3841;SDS011;1936;47.074;15.336;2023-03-11T03:49:07;0.60;;;0.40;;
3841;SDS011;1936;47.074;15.336;2023-03-11T03:51:11;1.10;;;0.40;;
3841;SDS011;1936;47.074;15.336;2023-03-11T03:53:16;0.60;;;0.40;;
3841;SDS011;1936;47.074;15.336;2023-03-11T03:55:19;0.50;;;0.40;;
3841;SDS011;1936;47.074;15.336;2023-03-11T03:57:23;0.82;;;0.55;;
3841;SDS011;1936;47.074;15.336;2023-03-11T03:59:27;0.70;;;0.50;;
3841;SDS011;1936;47.074;15.336;2023-03-11T04:01:31;0.65;;;0.40;;
3841;SDS011;1936;47.074;15.336;2023-03-11T04:03:35;0.90;;;0.47;;
3841;SDS011;1936;47.074;15.336;2023-03-11T04:05:41;0.55;;;0.40;;
3841;SDS011;1936;47.074;15.336;2023-03-11T04:07:45;0.60;;;0.50;;
3841;SDS011;1936;47.074;15.336;2023-03-11T04:09:48;0.50;;;0.30;;
3841;SDS011;1936;47.074;15.336;2023-03-11T04:11:52;0.70;;;0.43;;
3841;SDS011;1936;47.074;15.336;2023-03-11T04:13:55;0.50;;;0.40;;
3841;SDS011;1936;47.074;15.336;2023-03-11T04:16:00;0.55;;;0.43;;
3841;SDS011;1936;47.074;15.336;2023-03-11T04:18:05;0.50;;;0.40;;
3841;SDS011;1936;47.074;15.336;2023-03-11T04:20:09;0.95;;;0.40;;
3841;SDS011;1936;47.074;15.336;2023-03-11T04:22:15;1.83;;;0.50;;
3841;SDS011;1936;47.074;15.336;2023-03-11T04:24:19;0.70;;;0.50;;
3841;SDS011;1936;47.074;15.336;2023-03-11T04:26:23;2.05;;;0.40;;
3841;SDS011;1936;47.074;15.336;2023-03-11T04:28:26;1.15;;;0.40;;
3841;SDS011;1936;47.074;15.336;2023-03-11T04:30:30;1.35;;;0.30;;
3841;SDS011;1936;47.074;15.336;2023-03-11T04:32:34;0.50;;;0.30;;
3841;SDS011;1936;47.074;15.336;2023-03-11T04:34:37;1.45;;;0.45;;
3841;SDS011;1936;47.074;15.336;2023-03-11T04:36:41;0.60;;;0.40;;
3841;SDS011;1936;47.074;15.336;2023-03-11T04:38:46;2.35;;;0.40;;
3841;SDS011;1936;47.074;15.336;2023-03-11T04:40:50;0.60;;;0.40;;
3841;SDS011;1936;47.074;15.336;2023-03-11T04:42:53;0.50;;;0.35;;
3841;SDS011;1936;47.074;15.336;2023-03-11T04:44:57;0.60;;;0.50;;
3841;SDS011;1936;47.074;15.336;2023-03-11T04:47:00;0.88;;;0.40;;
3841;SDS011;1936;47.074;15.336;2023-03-11T04:49:04;0.80;;;0.50;;
3841;SDS011;1936;47.074;15.336;2023-03-11T04:51:08;0.50;;;0.40;;
3841;SDS011;1936;47.074;15.336;2023-03-11T04:53:12;1.20;;;0.40;;
3841;SDS011;1936;47.074;15.336;2023-03-11T04:55:17;0.50;;;0.38;;
3841;SDS011;1936;47.074;15.336;2023-03-11T04:57:20;0.60;;;0.50;;
3841;SDS011;1936;47.074;15.336;2023-03-11T04:59:24;0.57;;;0.50;;
3841;SDS011;1936;47.074;15.336;2023-03-11T05:01:29;0.50;;;0.40;;
3841;SDS011;1936;47.074;15.336;2023-03-11T05:03:32;0.70;;;0.50;;
3841;SDS011;1936;47.074;15.336;2023-03-11T05:05:36;0.80;;;0.50;;
3841;SDS011;1936;47.074;15.336;2023-03-11T05:07:39;1.35;;;0.40;;
3841;SDS011;1936;47.074;15.336;2023-03-11T05:09:43;0.50;;;0.50;;
3841;SDS011;1936;47.074;15.336;2023-03-11T05:11:48;0.70;;;0.40;;
3841;SDS011;1936;47.074;15.336;2023-03-11T05:13:52;3.55;;;0.50;;
3841;SDS011;1936;47.074;15.336;2023-03-11T05:15:55;1.00;;;0.40;;
3841;SDS011;1936;47.074;15.336;2023-03-11T05:17:59;0.70;;;0.40;;
3841;SDS011;1936;47.074;15.336;2023-03-11T05:20:03;0.80;;;0.40;;
3841;SDS011;1936;47.074;15.336;2023-03-11T05:22:08;1.02;;;0.40;;
3841;SDS011;1936;47.074;15.336;2023-03-11T05:24:12;1.95;;;0.45;;
3841;SDS011;1936;47.074;15.336;2023-03-11T05:26:16;0.50;;;0.30;;
3841;SDS011;1936;47.074;15.336;2023-03-11T05:28:21;0.57;;;0.40;;
3841;SDS011;1936;47.074;15.336;2023-03-11T05:30:25;0.60;;;0.55;;
3841;SDS011;1936;47.074;15.336;2023-03-11T05:32:28;0.80;;;0.50;;
3841;SDS011;1936;47.074;15.336;2023-03-11T05:34:32;0.60;;;0.50;;
3841;SDS011;1936;47.074;15.336;2023-03-11T05:36:36;0.50;;;0.40;;
3841;SDS011;1936;47.074;15.336;2023-03-11T05:38:39;0.98;;;0.40;;
3841;SDS011;1936;47.074;15.336;2023-03-11T05:40:43;0.50;;;0.40;;
3841;SDS011;1936;47.074;15.336;2023-03-11T05:42:46;0.60;;;0.40;;
3841;SDS011;1936;47.074;15.336;2023-03-11T05:44:52;0.50;;;0.38;;
3841;SDS011;1936;47.074;15.336;2023-03-11T05:46:55;0.60;;;0.50;;
3841;SDS011;1936;47.074;15.336;2023-03-11T05:48:59;0.50;;;0.40;;
3841;SDS011;1936;47.074;15.336;2023-03-11T05:51:05;0.50;;;0.40;;
3841;SDS011;1936;47.074;15.336;2023-03-11T05:53:09;0.60;;;0.40;;
3841;SDS011;1936;47.074;15.336;2023-03-11T05:55:13;0.55;;;0.40;;
3841;SDS011;1936;47.074;15.336;2023-03-11T05:57:17;0.60;;;0.40;;
3841;SDS011;1936;47.074;15.336;2023-03-11T05:59:21;0.57;;;0.40;;
3841;SDS011;1936;47.074;15.336;2023-03-11T06:01:26;0.60;;;0.50;;
3841;SDS011;1936;47.074;15.336;2023-03-11T06:03:30;4.10;;;0.50;;
3841;SDS011;1936;47.074;15.336;2023-03-11T06:05:34;0.60;;;0.50;;
3841;SDS011;1936;47.074;15.336;2023-03-11T06:07:37;0.93;;;0.80;;
3841;SDS011;1936;47.074;15.336;2023-03-11T06:09:41;1.38;;;0.68;;
3841;SDS011;1936;47.074;15.336;2023-03-11T06:11:45;0.70;;;0.40;;
3841;SDS011;1936;47.074;15.336;2023-03-11T06:13:50;0.80;;;0.52;;
3841;SDS011;1936;47.074;15.336;2023-03-11T06:15:54;0.90;;;0.68;;
3841;SDS011;1936;47.074;15.336;2023-03-11T06:17:59;0.70;;;0.70;;
3841;SDS011;1936;47.074;15.336;2023-03-11T06:20:03;0.60;;;0.40;;
3841;SDS011;1936;47.074;15.336;2023-03-11T06:22:08;7.70;;;0.80;;
3841;SDS011;1936;47.074;15.336;2023-03-11T06:24:11;0.50;;;0.40;;
3841;SDS011;1936;47.074;15.336;2023-03-11T06:26:17;1.00;;;0.60;;
3841;SDS011;1936;47.074;15.336;2023-03-11T06:28:22;0.82;;;0.57;;
3841;SDS011;1936;47.074;15.336;2023-03-11T06:30:25;1.00;;;0.60;;
3841;SDS011;1936;47.074;15.336;2023-03-11T06:32:29;0.80;;;0.40;;
3841;SDS011;1936;47.074;15.336;2023-03-11T06:34:36;0.70;;;0.50;;
3841;SDS011;1936;47.074;15.336;2023-03-11T06:36:40;0.60;;;0.50;;
3841;SDS011;1936;47.074;15.336;2023-03-11T06:38:43;0.70;;;0.47;;
3841;SDS011;1936;47.074;15.336;2023-03-11T06:40:47;0.88;;;0.50;;
3841;SDS011;1936;47.074;15.336;2023-03-11T06:42:51;1.02;;;0.50;;
3841;SDS011;1936;47.074;15.336;2023-03-11T06:44:55;0.70;;;0.60;;
3841;SDS011;1936;47.074;15.336;2023-03-11T06:46:58;0.88;;;0.50;;
3841;SDS011;1936;47.074;15.336;2023-03-11T06:49:04;2.10;;;0.70;;
3841;SDS011;1936;47.074;15.336;2023-03-11T06:51:09;2.97;;;1.00;;
3841;SDS011;1936;47.074;15.336;2023-03-11T06:53:13;2.22;;;1.20;;
3841;SDS011;1936;47.074;15.336;2023-03-11T06:55:17;0.60;;;0.40;;
3841;SDS011;1936;47.074;15.336;2023-03-11T06:57:21;1.08;;;0.63;;
3841;SDS011;1936;47.074;15.336;2023-03-11T06:59:25;0.70;;;0.40;;
3841;SDS011;1936;47.074;15.336;2023-03-11T07:01:29;2.35;;;0.60;;
3841;SDS011;1936;47.074;15.336;2023-03-11T07:03:33;0.60;;;0.50;;
3841;SDS011;1936;47.074;15.336;2023-03-11T07:05:54;2.65;;;0.50;;
3841;SDS011;1936;47.074;15.336;2023-03-11T07:07:59;0.80;;;0.38;;
3841;SDS011;1936;47.074;15.336;2023-03-11T07:10:03;0.55;;;0.40;;
3841;SDS011;1936;47.074;15.336;2023-03-11T07:12:08;0.60;;;0.40;;
3841;SDS011;1936;47.074;15.336;2023-03-11T07:14:11;0.70;;;0.47;;
3841;SDS011;1936;47.074;15.336;2023-03-11T07:16:16;1.77;;;0.50;;
3841;SDS011;1936;47.074;15.336;2023-03-11T07:18:21;0.73;;;0.50;;
3841;SDS011;1936;47.074;15.336;2023-03-11T07:20:25;0.73;;;0.50;;
3841;SDS011;1936;47.074;15.336;2023-03-11T07:22:29;0.57;;;0.40;;
3841;SDS011;1936;47.074;15.336;2023-03-11T07:24:33;0.50;;;0.40;;
3841;SDS011;1936;47.074;15.336;2023-03-11T07:26:37;0.70;;;0.40;;
3841;SDS011;1936;47.074;15.336;2023-03-11T07:28:41;0.75;;;0.40;;
3841;SDS011;1936;47.074;15.336;2023-03-11T07:30:46;0.60;;;0.40;;
3841;SDS011;1936;47.074;15.336;2023-03-11T07:32:49;0.70;;;0.50;;
3841;SDS011;1936;47.074;15.336;2023-03-11T07:34:52;0.60;;;0.40;;
3841;SDS011;1936;47.074;15.336;2023-03-11T07:36:56;0.60;;;0.47;;
3841;SDS011;1936;47.074;15.336;2023-03-11T07:39:00;1.60;;;0.88;;
3841;SDS011;1936;47.074;15.336;2023-03-11T07:41:07;1.45;;;0.70;;
3841;SDS011;1936;47.074;15.336;2023-03-11T07:43:11;0.90;;;0.60;;
3841;SDS011;1936;47.074;15.336;2023-03-11T07:45:15;0.75;;;0.50;;
3841;SDS011;1936;47.074;15.336;2023-03-11T07:47:18;0.70;;;0.50;;
3841;SDS011;1936;47.074;15.336;2023-03-11T07:49:22;0.93;;;0.60;;
3841;SDS011;1936;47.074;15.336;2023-03-11T07:51:26;2.17;;;0.60;;
3841;SDS011;1936;47.074;15.336;2023-03-11T07:53:32;0.70;;;0.52;;
3841;SDS011;1936;47.074;15.336;2023-03-11T07:55:35;0.60;;;0.40;;
3841;SDS011;1936;47.074;15.336;2023-03-11T07:57:40;0.80;;;0.47;;
3841;SDS011;1936;47.074;15.336;2023-03-11T07:59:44;0.57;;;0.40;;
3841;SDS011;1936;47.074;15.336;2023-03-11T08:01:47;0.80;;;0.60;;
3841;SDS011;1936;47.074;15.336;2023-03-11T08:03:51;0.70;;;0.50;;
3841;SDS011;1936;47.074;15.336;2023-03-11T08:05:58;0.70;;;0.40;;
3841;SDS011;1936;47.074;15.336;2023-03-11T08:08:01;1.20;;;0.60;;
3841;SDS011;1936;47.074;15.336;2023-03-11T08:10:05;0.60;;;0.43;;
3841;SDS011;1936;47.074;15.336;2023-03-11T08:12:09;0.80;;;0.60;;
3841;SDS011;1936;47.074;15.336;2023-03-11T08:14:15;1.00;;;0.50;;
3841;SDS011;1936;47.074;15.336;2023-03-11T08:16:19;1.33;;;0.50;;
3841;SDS011;1936;47.074;15.336;2023-03-11T08:18:23;1.03;;;0.70;;
3841;SDS011;1936;47.074;15.336;2023-03-11T08:20:27;0.60;;;0.53;;
3841;SDS011;1936;47.074;15.336;2023-03-11T08:22:30;0.70;;;0.60;;
3841;SDS011;1936;47.074;15.336;2023-03-11T08:24:34;0.80;;;0.40;;
3841;SDS011;1936;47.074;15.336;2023-03-11T08:26:38;0.60;;;0.40;;
3841;SDS011;1936;47.074;15.336;2023-03-11T08:28:41;1.50;;;0.70;;
3841;SDS011;1936;47.074;15.336;2023-03-11T08:30:46;0.60;;;0.40;;
3841;SDS011;1936;47.074;15.336;2023-03-11T08:32:50;0.60;;;0.40;;
3841;SDS011;1936;47.074;15.336;2023-03-11T08:34:53;1.30;;;0.40;;
3841;SDS011;1936;47.074;15.336;2023-03-11T08:36:57;1.05;;;0.55;;
3841;SDS011;1936;47.074;15.336;2023-03-11T08:39:00;1.88;;;0.40;;
3841;SDS011;1936;47.074;15.336;2023-03-11T08:41:04;2.35;;;0.40;;
3841;SDS011;1936;47.074;15.336;2023-03-11T08:43:10;0.70;;;0.50;;
3841;SDS011;1936;47.074;15.336;2023-03-11T08:45:15;1.47;;;0.40;;
3841;SDS011;1936;47.074;15.336;2023-03-11T08:47:19;0.70;;;0.50;;
3841;SDS011;1936;47.074;15.336;2023-03-11T08:49:23;1.00;;;0.47;;
3841;SDS011;1936;47.074;15.336;2023-03-11T08:51:26;0.60;;;0.43;;
3841;SDS011;1936;47.074;15.336;2023-03-11T08:53:30;0.93;;;0.50;;
3841;SDS011;1936;47.074;15.336;2023-03-11T08:55:33;1.27;;;0.73;;
3841;SDS011;1936;47.074;15.336;2023-03-11T08:57:37;2.60;;;0.60;;
3841;SDS011;1936;47.074;15.336;2023-03-11T08:59:40;0.83;;;0.50;;
3841;SDS011;1936;47.074;15.336;2023-03-11T09:01:43;0.60;;;0.30;;
3841;SDS011;1936;47.074;15.336;2023-03-11T09:03:49;0.70;;;0.40;;
3841;SDS011;1936;47.074;15.336;2023-03-11T09:05:55;1.13;;;0.50;;
3841;SDS011;1936;47.074;15.336;2023-03-11T09:07:59;0.73;;;0.40;;
3841;SDS011;1936;47.074;15.336;2023-03-11T09:10:06;1.43;;;0.63;;
3841;SDS011;1936;47.074;15.336;2023-03-11T09:12:10;0.80;;;0.70;;
3841;SDS011;1936;47.074;15.336;2023-03-11T09:14:16;1.53;;;0.50;;
3841;SDS011;1936;47.074;15.336;2023-03-11T09:16:20;10.23;;;0.70;;
3841;SDS011;1936;47.074;15.336;2023-03-11T09:18:25;0.80;;;0.40;;
3841;SDS011;1936;47.074;15.336;2023-03-11T09:20:31;1.27;;;0.90;;
3841;SDS011;1936;47.074;15.336;2023-03-11T09:22:34;1.27;;;0.87;;
3841;SDS011;1936;47.074;15.336;2023-03-11T09:24:38;1.60;;;1.10;;
3841;SDS011;1936;47.074;15.336;2023-03-11T09:26:41;1.00;;;0.70;;
3841;SDS011;1936;47.074;15.336;2023-03-11T09:28:45;1.13;;;0.77;;
3841;SDS011;1936;47.074;15.336;2023-03-11T09:30:49;0.87;;;0.60;;
3841;SDS011;1936;47.074;15.336;2023-03-11T09:32:53;0.70;;;0.40;;
3841;SDS011;1936;47.074;15.336;2023-03-11T09:34:56;0.90;;;0.50;;
3841;SDS011;1936;47.074;15.336;2023-03-11T09:37:01;0.80;;;0.40;;
3841;SDS011;1936;47.074;15.336;2023-03-11T09:39:05;0.60;;;0.40;;
3841;SDS011;1936;47.074;15.336;2023-03-11T09:41:12;0.70;;;0.40;;
3841;SDS011;1936;47.074;15.336;2023-03-11T09:43:27;0.80;;;0.47;;
3841;SDS011;1936;47.074;15.336;2023-03-11T09:45:39;0.77;;;0.47;;
3841;SDS011;1936;47.074;15.336;2023-03-11T09:47:53;0.70;;;0.40;;
3841;SDS011;1936;47.074;15.336;2023-03-11T09:50:13;1.10;;;0.40;;
3841;SDS011;1936;47.074;15.336;2023-03-11T09:52:28;1.80;;;0.40;;
3841;SDS011;1936;47.074;15.336;2023-03-11T09:54:37;0.97;;;0.60;;
3841;SDS011;1936;47.074;15.336;2023-03-11T09:56:43;2.93;;;1.03;;
3841;SDS011;1936;47.074;15.336;2023-03-11T09:58:47;0.90;;;0.57;;
3841;SDS011;1936;47.074;15.336;2023-03-11T10:00:53;0.70;;;0.40;;
3841;SDS011;1936;47.074;15.336;2023-03-11T10:02:57;2.30;;;0.50;;
3841;SDS011;1936;47.074;15.336;2023-03-11T10:05:05;0.90;;;0.40;;
3841;SDS011;1936;47.074;15.336;2023-03-11T10:07:16;4.00;;;0.70;;
3841;SDS011;1936;47.074;15.336;2023-03-11T10:09:32;1.03;;;0.73;;
3841;SDS011;1936;47.074;15.336;2023-03-11T10:11:43;0.90;;;0.40;;
3841;SDS011;1936;47.074;15.336;2023-03-11T10:13:55;0.90;;;0.50;;
3841;SDS011;1936;47.074;15.336;2023-03-11T10:16:12;3.60;;;0.80;;
3841;SDS011;1936;47.074;15.336;2023-03-11T10:18:29;0.80;;;0.60;;
3841;SDS011;1936;47.074;15.336;2023-03-11T10:20:45;0.70;;;0.40;;
3841;SDS011;1936;47.074;15.336;2023-03-11T10:22:57;1.37;;;0.40;;
3841;SDS011;1936;47.074;15.336;2023-03-11T10:25:12;1.83;;;0.50;;
3841;SDS011;1936;47.074;15.336;2023-03-11T10:27:18;2.00;;;0.60;;
3841;SDS011;1936;47.074;15.336;2023-03-11T10:29:28;1.00;;;0.40;;
3841;SDS011;1936;47.074;15.336;2023-03-11T10:31:35;1.27;;;0.50;;
3841;SDS011;1936;47.074;15.336;2023-03-11T10:33:43;0.80;;;0.60;;
3841;SDS011;1936;47.074;15.336;2023-03-11T10:35:51;1.63;;;0.50;;
3841;SDS011;1936;47.074;15.336;2023-03-11T10:37:57;1.10;;;0.57;;
3841;SDS011;1936;47.074;15.336;2023-03-11T10:40:07;0.80;;;0.40;;
3841;SDS011;1936;47.074;15.336;2023-03-11T10:42:24;0.70;;;0.43;;
3841;SDS011;1936;47.074;15.336;2023-03-11T10:44:31;1.00;;;0.40;;
3841;SDS011;1936;47.074;15.336;2023-03-11T10:46:36;0.80;;;0.50;;
3841;SDS011;1936;47.074;15.336;2023-03-11T10:48:40;0.60;;;0.40;;
3841;SDS011;1936;47.074;15.336;2023-03-11T10:50:49;1.40;;;0.47;;
3841;SDS011;1936;47.074;15.336;2023-03-11T10:53:03;0.77;;;0.63;;
3841;SDS011;1936;47.074;15.336;2023-03-11T10:55:08;0.70;;;0.40;;
3841;SDS011;1936;47.074;15.336;2023-03-11T10:57:23;2.40;;;0.57;;
3841;SDS011;1936;47.074;15.336;2023-03-11T10:59:29;2.10;;;0.47;;
3841;SDS011;1936;47.074;15.336;2023-03-11T11:01:34;1.07;;;0.50;;
3841;SDS011;1936;47.074;15.336;2023-03-11T11:03:39;1.00;;;0.43;;
3841;SDS011;1936;47.074;15.336;2023-03-11T11:05:43;0.80;;;0.50;;
3841;SDS011;1936;47.074;15.336;2023-03-11T11:08:02;1.10;;;0.57;;
3841;SDS011;1936;47.074;15.336;2023-03-11T11:10:15;0.80;;;0.40;;
3841;SDS011;1936;47.074;15.336;2023-03-11T11:12:22;1.43;;;0.60;;
3841;SDS011;1936;47.074;15.336;2023-03-11T11:14:39;0.70;;;0.40;;
3841;SDS011;1936;47.074;15.336;2023-03-11T11:16:46;4.70;;;0.50;;
3841;SDS011;1936;47.074;15.336;2023-03-11T11:18:54;0.97;;;0.50;;
3841;SDS011;1936;47.074;15.336;2023-03-11T11:21:02;0.70;;;0.40;;
3841;SDS011;1936;47.074;15.336;2023-03-11T11:23:22;1.00;;;0.67;;
3841;SDS011;1936;47.074;15.336;2023-03-11T11:25:31;2.03;;;0.50;;
3841;SDS011;1936;47.074;15.336;2023-03-11T11:27:38;0.80;;;0.40;;
3841;SDS011;1936;47.074;15.336;2023-03-11T11:30:11;0.60;;;0.40;;
3841;SDS011;1936;47.074;15.336;2023-03-11T11:32:18;0.70;;;0.40;;
3841;SDS011;1936;47.074;15.336;2023-03-11T11:34:26;1.00;;;0.50;;
3841;SDS011;1936;47.074;15.336;2023-03-11T11:36:33;1.33;;;0.60;;
3841;SDS011;1936;47.074;15.336;2023-03-11T11:38:39;0.80;;;0.50;;
3841;SDS011;1936;47.074;15.336;2023-03-11T11:40:42;0.70;;;0.40;;
3841;SDS011;1936;47.074;15.336;2023-03-11T11:42:49;0.90;;;0.60;;
3841;SDS011;1936;47.074;15.336;2023-03-11T11:44:56;0.77;;;0.50;;
3841;SDS011;1936;47.074;15.336;2023-03-11T11:47:06;1.08;;;0.70;;
3841;SDS011;1936;47.074;15.336;2023-03-11T11:49:15;4.20;;;0.50;;
3841;SDS011;1936;47.074;15.336;2023-03-11T11:51:24;0.90;;;0.50;;
3841;SDS011;1936;47.074;15.336;2023-03-11T11:53:34;1.00;;;0.60;;
3841;SDS011;1936;47.074;15.336;2023-03-11T11:55:45;1.93;;;1.27;;
3841;SDS011;1936;47.074;15.336;2023-03-11T11:57:51;2.17;;;0.53;;
3841;SDS011;1936;47.074;15.336;2023-03-11T11:59:55;0.80;;;0.50;;
3841;SDS011;1936;47.074;15.336;2023-03-11T12:02:01;1.67;;;0.40;;
3841;SDS011;1936;47.074;15.336;2023-03-11T12:04:35;1.10;;;0.40;;
3841;SDS011;1936;47.074;15.336;2023-03-11T12:06:49;0.60;;;0.40;;
3841;SDS011;1936;47.074;15.336;2023-03-11T12:09:03;0.70;;;0.40;;
3841;SDS011;1936;47.074;15.336;2023-03-11T12:11:17;0.67;;;0.40;;
3841;SDS011;1936;47.074;15.336;2023-03-11T12:13:32;0.70;;;0.40;;
3841;SDS011;1936;47.074;15.336;2023-03-11T12:15:51;5.90;;;0.47;;
3841;SDS011;1936;47.074;15.336;2023-03-11T12:17:59;0.90;;;0.50;;
3841;SDS011;1936;47.074;15.336;2023-03-11T12:20:07;0.60;;;0.40;;
3841;SDS011;1936;47.074;15.336;2023-03-11T12:22:30;0.87;;;0.50;;
3841;SDS011;1936;47.074;15.336;2023-03-11T12:24:57;0.70;;;0.50;;
3841;SDS011;1936;47.074;15.336;2023-03-11T12:27:23;0.60;;;0.40;;
3841;SDS011;1936;47.074;15.336;2023-03-11T12:29:31;0.77;;;0.50;;
3841;SDS011;1936;47.074;15.336;2023-03-11T12:31:38;0.70;;;0.40;;
3841;SDS011;1936;47.074;15.336;2023-03-11T12:33:43;0.70;;;0.40;;
3841;SDS011;1936;47.074;15.336;2023-03-11T12:35:52;0.70;;;0.40;;
3841;SDS011;1936;47.074;15.336;2023-03-11T12:38:03;0.87;;;0.40;;
3841;SDS011;1936;47.074;15.336;2023-03-11T12:42:49;0.80;;;0.47;;
3841;SDS011;1936;47.074;15.336;2023-03-11T12:44:54;1.07;;;0.50;;
3841;SDS011;1936;47.074;15.336;2023-03-11T12:47:36;0.90;;;0.60;;
3841;SDS011;1936;47.074;15.336;2023-03-11T12:49:40;1.27;;;0.50;;
3841;SDS011;1936;47.074;15.336;2023-03-11T12:51:58;0.80;;;0.50;;
3841;SDS011;1936;47.074;15.336;2023-03-11T12:56:25;1.27;;;0.50;;
3841;SDS011;1936;47.074;15.336;2023-03-11T12:58:39;0.73;;;0.47;;